createdAt,value
2023-09-17T00:02:36.087Z,4.63
2023-09-17T00:05:21.615Z,4.35
2023-09-17T00:08:07.022Z,4.55
2023-09-17T00:10:52.859Z,4.70
2023-09-17T00:13:38.617Z,4.63
2023-09-17T00:16:24.492Z,4.32
2023-09-17T00:22:22.062Z,4.68
2023-09-17T00:25:08.440Z,4.63
2023-09-17T00:27:53.771Z,4.55
2023-09-17T00:30:39.177Z,4.60
2023-09-17T00:33:25.022Z,4.18
2023-09-17T00:36:14.122Z,4.63
2023-09-17T00:38:59.864Z,4.65
2023-09-17T00:41:46.002Z,4.97
2023-09-17T00:44:31.608Z,4.80
2023-09-17T00:47:17.558Z,5.05
2023-09-17T00:50:05.224Z,4.70
2023-09-17T00:52:52.317Z,4.60
2023-09-17T00:55:38.983Z,4.53
2023-09-17T00:58:25.052Z,4.65
2023-09-17T01:01:11.594Z,4.32
2023-09-17T01:03:57.995Z,4.78
2023-09-17T01:06:44.820Z,4.55
2023-09-17T01:09:32.903Z,4.47
2023-09-17T01:12:19.986Z,4.60
2023-09-17T01:15:08.899Z,4.47
2023-09-17T01:17:54.680Z,4.72
2023-09-17T01:20:52.003Z,4.53
2023-09-17T01:23:44.558Z,4.75
2023-09-17T01:29:21.522Z,4.30
2023-09-17T01:32:07.787Z,4.45
2023-09-17T01:34:53.762Z,4.38
2023-09-17T01:37:45.618Z,4.65
2023-09-17T01:40:31.860Z,4.30
2023-09-17T01:43:18.715Z,4.00
2023-09-17T01:46:06.714Z,4.22
2023-09-17T01:48:53.942Z,4.45
2023-09-17T01:51:40.506Z,4.18
2023-09-17T01:54:26.212Z,4.35
2023-09-17T01:57:12.570Z,4.15
2023-09-17T01:59:58.424Z,4.85
2023-09-17T02:02:49.802Z,4.47
2023-09-17T02:05:36.081Z,4.30
2023-09-17T02:08:21.900Z,4.38
2023-09-17T02:11:07.381Z,5.05
2023-09-17T02:14:20.331Z,4.68
2023-09-17T02:17:24.741Z,4.50
2023-09-17T02:20:13.268Z,4.65
2023-09-17T02:22:59.054Z,4.80
2023-09-17T02:25:45.053Z,4.57
2023-09-17T02:28:30.608Z,4.50
2023-09-17T02:31:16.416Z,4.85
2023-09-17T02:34:02.280Z,4.57
2023-09-17T02:36:49.101Z,4.90
2023-09-17T02:39:35.112Z,4.90
2023-09-17T02:42:20.767Z,4.78
2023-09-17T02:45:07.553Z,4.60
2023-09-17T02:47:53.582Z,4.70
2023-09-17T02:50:39.937Z,4.47
2023-09-17T02:53:26.920Z,4.90
2023-09-17T02:56:12.537Z,4.85
2023-09-17T02:58:58.140Z,4.82
2023-09-17T03:01:43.731Z,4.75
2023-09-17T03:04:29.766Z,4.60
2023-09-17T03:07:15.297Z,4.90
2023-09-17T03:10:02.237Z,4.90
2023-09-17T03:12:50.283Z,4.85
2023-09-17T03:15:36.806Z,4.85
2023-09-17T03:18:22.654Z,4.88
2023-09-17T03:21:08.298Z,5.13
2023-09-17T03:23:54.642Z,4.53
2023-09-17T03:26:41.350Z,4.35
2023-09-17T03:29:27.102Z,4.55
2023-09-17T03:32:12.616Z,4.25
2023-09-17T03:34:58.858Z,4.68
2023-09-17T03:37:44.542Z,4.63
2023-09-17T03:40:30.338Z,5.28
2023-09-17T03:43:17.289Z,5.25
2023-09-17T03:46:03.557Z,4.95
2023-09-17T03:48:49.238Z,4.70
2023-09-17T03:51:35.289Z,4.68
2023-09-17T03:54:21.007Z,4.88
2023-09-17T03:57:06.560Z,5.13
2023-09-17T03:59:53.345Z,5.45
2023-09-17T04:02:40.612Z,4.90
2023-09-17T04:05:27.578Z,5.20
2023-09-17T04:08:13.605Z,4.93
2023-09-17T04:10:59.577Z,5.35
2023-09-17T04:13:45.551Z,5.20
2023-09-17T04:16:32.815Z,4.75
2023-09-17T04:19:18.252Z,4.82
2023-09-17T04:22:04.325Z,4.95
2023-09-17T04:24:50.295Z,4.88
2023-09-17T04:27:36.932Z,4.63
2023-09-17T04:30:23.425Z,5.10
2023-09-17T04:33:10.403Z,5.05
2023-09-17T04:35:58.420Z,4.82
2023-09-17T04:38:44.058Z,4.57
2023-09-17T04:41:29.733Z,4.93
2023-09-17T04:44:15.418Z,4.55
2023-09-17T04:47:03.495Z,4.85
2023-09-17T04:49:51.268Z,4.75
2023-09-17T04:52:37.631Z,5.18
2023-09-17T04:55:23.473Z,5.35
2023-09-17T04:58:09.726Z,5.00
2023-09-17T05:00:55.698Z,4.78
2023-09-17T05:03:42.109Z,4.88
2023-09-17T05:06:29.420Z,5.00
2023-09-17T05:09:15.491Z,4.78
2023-09-17T05:12:01.076Z,4.38
2023-09-17T05:14:47.020Z,4.68
2023-09-17T05:17:32.718Z,5.63
2023-09-17T05:20:18.975Z,5.00
2023-09-17T05:23:05.732Z,5.28
2023-09-17T05:25:51.499Z,5.00
2023-09-17T05:28:38.076Z,5.80
2023-09-17T05:31:23.789Z,5.90
2023-09-17T05:34:09.266Z,5.85
2023-09-17T05:36:55.321Z,5.60
2023-09-17T05:39:42.937Z,5.35
2023-09-17T05:42:28.630Z,5.15
2023-09-17T05:45:14.237Z,5.40
2023-09-17T05:48:00.298Z,4.80
2023-09-17T05:50:46.394Z,5.32
2023-09-17T05:53:32.336Z,4.93
2023-09-17T05:56:19.140Z,4.97
2023-09-17T05:59:05.273Z,5.05
2023-09-17T06:01:51.071Z,5.28
2023-09-17T06:04:36.946Z,5.10
2023-09-17T06:07:23.664Z,5.18
2023-09-17T06:10:10.396Z,5.22
2023-09-17T06:12:57.296Z,5.63
2023-09-17T06:15:43.219Z,5.60
2023-09-17T06:18:29.382Z,5.95
2023-09-17T06:21:15.812Z,5.75
2023-09-17T06:24:02.149Z,5.75
2023-09-17T06:26:47.635Z,6.10
2023-09-17T06:29:35.202Z,6.10
2023-09-17T06:32:21.394Z,6.28
2023-09-17T06:35:08.200Z,5.93
2023-09-17T06:37:54.095Z,6.05
2023-09-17T06:40:40.060Z,7.05
2023-09-17T06:43:32.685Z,5.50
2023-09-17T06:46:21.383Z,5.97
2023-09-17T06:49:07.534Z,5.82
2023-09-17T06:51:56.787Z,5.40
2023-09-17T06:54:47.085Z,5.85
2023-09-17T06:57:33.539Z,6.38
2023-09-17T07:00:19.831Z,6.82
2023-09-17T07:03:07.401Z,6.63
2023-09-17T07:05:53.332Z,6.60
2023-09-17T07:08:39.199Z,6.70
2023-09-17T07:11:24.779Z,6.15
2023-09-17T07:14:10.848Z,6.55
2023-09-17T07:16:58.679Z,6.38
2023-09-17T07:19:51.390Z,6.00
2023-09-17T07:22:39.235Z,6.10
2023-09-17T07:25:25.484Z,6.68
2023-09-17T07:28:11.047Z,6.10
2023-09-17T07:31:01.092Z,5.95
2023-09-17T07:33:46.941Z,5.75
2023-09-17T07:36:34.068Z,5.93
2023-09-17T07:39:20.215Z,5.40
2023-09-17T07:42:06.730Z,5.65
2023-09-17T07:44:57.258Z,5.90
2023-09-17T07:47:44.453Z,5.50
2023-09-17T07:50:30.193Z,4.97
2023-09-17T07:53:21.202Z,4.68
2023-09-17T07:56:12.221Z,4.70
2023-09-17T07:58:58.815Z,5.20
2023-09-17T08:01:50.109Z,4.68
2023-09-17T08:07:28.748Z,4.95
2023-09-17T08:10:16.751Z,5.03
2023-09-17T08:13:03.495Z,5.18
2023-09-17T08:15:49.059Z,5.22
2023-09-17T08:18:34.610Z,5.32
2023-09-17T08:21:20.171Z,5.60
2023-09-17T08:24:11.104Z,4.80
2023-09-17T08:26:59.649Z,4.88
2023-09-17T08:33:00.168Z,5.45
2023-09-17T08:35:46.281Z,4.95
2023-09-17T08:38:32.412Z,4.88
2023-09-17T08:41:19.289Z,4.85
2023-09-17T08:44:08.145Z,4.05
2023-09-17T08:46:57.246Z,4.57
2023-09-17T08:49:42.961Z,4.38
2023-09-17T08:52:33.189Z,4.57
2023-09-17T08:55:20.878Z,4.22
2023-09-17T08:58:19.256Z,4.10
2023-09-17T09:01:14.347Z,3.80
2023-09-17T09:04:02.507Z,4.00
2023-09-17T09:06:57.560Z,3.35
2023-09-17T09:09:45.770Z,3.25
2023-09-17T09:12:31.736Z,3.25
2023-09-17T09:15:17.341Z,3.40
2023-09-17T09:18:05.686Z,3.25
2023-09-17T09:20:51.574Z,3.80
2023-09-17T09:23:38.973Z,3.28
2023-09-17T09:26:34.519Z,3.80
2023-09-17T09:29:22.480Z,3.55
2023-09-17T09:32:08.958Z,3.50
2023-09-17T09:34:57.354Z,3.40
2023-09-17T09:37:44.349Z,3.33
2023-09-17T09:40:30.897Z,3.30
2023-09-17T09:43:29.516Z,3.78
2023-09-17T09:46:16.063Z,3.38
2023-09-17T09:49:02.155Z,3.78
2023-09-17T09:51:49.827Z,3.40
2023-09-17T09:54:35.531Z,3.35
2023-09-17T09:57:21.523Z,3.22
2023-09-17T10:00:10.568Z,3.47
2023-09-17T10:02:56.756Z,3.25
2023-09-17T10:05:42.881Z,3.40
2023-09-17T10:08:30.733Z,3.42
2023-09-17T10:11:17.201Z,3.05
2023-09-17T10:14:03.827Z,3.17
2023-09-17T10:16:50.875Z,3.50
2023-09-17T10:19:39.033Z,3.20
2023-09-17T10:22:25.746Z,3.05
2023-09-17T10:25:15.764Z,3.30
2023-09-17T10:28:03.496Z,3.08
2023-09-17T10:30:51.016Z,3.35
2023-09-17T10:33:38.937Z,3.00
2023-09-17T10:36:26.836Z,3.50
2023-09-17T10:39:15.540Z,3.28
2023-09-17T10:42:03.630Z,3.20
2023-09-17T10:44:54.077Z,3.25
2023-09-17T10:47:41.559Z,2.97
2023-09-17T10:50:27.806Z,3.08
2023-09-17T10:53:13.812Z,2.80
2023-09-17T10:56:07.605Z,2.70
2023-09-17T10:58:54.944Z,2.75
2023-09-17T11:01:42.816Z,2.90
2023-09-17T11:04:30.740Z,2.63
2023-09-17T11:07:18.056Z,2.92
2023-09-17T11:10:14.441Z,2.80
2023-09-17T11:13:07.892Z,2.90
2023-09-17T11:15:57.049Z,2.97
2023-09-17T11:18:45.576Z,2.55
2023-09-17T11:22:12.280Z,3.00
2023-09-17T11:24:59.067Z,2.78
2023-09-17T11:27:48.627Z,2.70
2023-09-17T11:31:00.925Z,3.08
2023-09-17T11:33:46.850Z,2.80
2023-09-17T11:36:33.068Z,2.80
2023-09-17T11:39:19.137Z,2.80
2023-09-17T11:42:14.313Z,2.58
2023-09-17T11:45:00.255Z,2.70
2023-09-17T11:47:47.323Z,2.50
2023-09-17T11:50:33.164Z,2.50
2023-09-17T11:53:18.575Z,2.50
2023-09-17T11:56:04.308Z,2.55
2023-09-17T11:59:01.442Z,2.85
2023-09-17T12:01:49.849Z,2.47
2023-09-17T12:04:37.470Z,2.40
2023-09-17T12:07:23.493Z,2.70
2023-09-17T12:10:11.248Z,2.30
2023-09-17T12:13:01.385Z,2.40
2023-09-17T12:15:47.445Z,2.40
2023-09-17T12:18:33.086Z,2.40
2023-09-17T12:21:21.648Z,2.42
2023-09-17T12:24:08.020Z,2.17
2023-09-17T12:27:22.590Z,2.30
2023-09-17T12:30:13.987Z,2.22
2023-09-17T12:33:00.701Z,2.20
2023-09-17T12:35:46.675Z,1.98
2023-09-17T12:38:34.026Z,2.20
2023-09-17T12:41:28.402Z,2.10
2023-09-17T12:44:25.976Z,2.15
2023-09-17T12:47:12.333Z,1.98
2023-09-17T12:49:58.414Z,2.30
2023-09-17T12:52:44.641Z,2.20
2023-09-17T12:55:31.536Z,2.40
2023-09-17T12:58:19.277Z,2.35
2023-09-17T13:01:10.421Z,2.30
2023-09-17T13:03:58.272Z,2.50
2023-09-17T13:06:48.066Z,2.33
2023-09-17T13:09:34.319Z,2.30
2023-09-17T13:12:23.032Z,2.42
2023-09-17T13:15:10.317Z,2.20
2023-09-17T13:17:55.848Z,2.10
2023-09-17T13:20:41.883Z,2.40
2023-09-17T13:23:27.701Z,2.88
2023-09-17T13:26:13.693Z,3.30
2023-09-17T13:29:00.849Z,3.25
2023-09-17T13:31:48.226Z,5.55
2023-09-17T13:34:35.498Z,3.75
2023-09-17T13:37:21.953Z,4.47
2023-09-17T13:40:09.061Z,3.35
2023-09-17T13:42:54.768Z,3.72
2023-09-17T13:45:52.741Z,3.22
2023-09-17T13:48:38.812Z,2.78
2023-09-17T13:51:24.498Z,2.90
2023-09-17T13:54:10.223Z,7.15
2023-09-17T13:56:58.988Z,4.50
2023-09-17T13:59:44.720Z,8.40
2023-09-17T14:02:32.052Z,4.00
2023-09-17T14:05:18.399Z,3.28
2023-09-17T14:08:06.003Z,2.75
2023-09-17T14:10:52.012Z,2.72
2023-09-17T14:13:37.983Z,2.90
2023-09-17T14:16:23.629Z,2.78
2023-09-17T14:22:20.262Z,2.78
2023-09-17T14:25:07.076Z,2.78
2023-09-17T14:27:52.869Z,2.78
2023-09-17T14:30:38.763Z,3.13
2023-09-17T14:33:25.155Z,2.88
2023-09-17T14:36:12.556Z,3.10
2023-09-17T14:38:58.601Z,2.90
2023-09-17T14:41:44.156Z,2.78
2023-09-17T14:44:29.776Z,3.05
2023-09-17T14:47:15.646Z,2.80
2023-09-17T14:50:01.359Z,3.05
2023-09-17T14:52:49.227Z,3.20
2023-09-17T14:55:34.792Z,3.20
2023-09-17T14:58:20.550Z,3.15
2023-09-17T15:01:06.167Z,3.00
2023-09-17T15:03:52.036Z,2.90
2023-09-17T15:06:37.789Z,3.30
2023-09-17T15:09:26.692Z,3.15
2023-09-17T15:12:12.819Z,2.90
2023-09-17T15:14:58.863Z,3.33
2023-09-17T15:17:44.609Z,2.83
2023-09-17T15:20:32.346Z,2.90
2023-09-17T15:23:18.812Z,3.17
2023-09-17T15:26:06.355Z,2.67
2023-09-17T15:28:51.976Z,3.20
2023-09-17T15:31:39.438Z,2.92
2023-09-17T15:34:25.333Z,2.80
2023-09-17T15:37:11.832Z,2.70
2023-09-17T15:40:00.038Z,2.90
2023-09-17T15:42:47.064Z,2.80
2023-09-17T15:45:32.990Z,2.90
2023-09-17T15:48:18.767Z,3.10
2023-09-17T15:51:06.222Z,2.75
2023-09-17T15:53:52.416Z,2.90
2023-09-17T15:56:38.158Z,2.72
2023-09-17T15:59:25.006Z,2.80
2023-09-17T16:02:10.630Z,2.70
2023-09-17T16:04:56.022Z,2.70
2023-09-17T16:07:45.393Z,2.60
2023-09-17T16:10:31.806Z,2.60
2023-09-17T16:13:17.935Z,2.78
2023-09-17T16:16:04.952Z,2.85
2023-09-17T16:22:00.482Z,2.78
2023-09-17T16:24:46.842Z,2.80
2023-09-17T16:27:35.584Z,2.80
2023-09-17T16:30:21.325Z,2.75
2023-09-17T16:33:08.442Z,2.65
2023-09-17T16:35:53.810Z,2.63
2023-09-17T16:38:39.438Z,2.90
2023-09-17T16:41:25.246Z,2.78
2023-09-17T16:44:10.938Z,2.70
2023-09-17T16:46:56.541Z,2.88
2023-09-17T16:49:43.886Z,2.80
2023-09-17T16:52:30.155Z,3.00
2023-09-17T16:55:16.691Z,3.40
2023-09-17T16:58:02.237Z,2.92
2023-09-17T17:00:48.194Z,2.90
2023-09-17T17:03:34.266Z,3.00
2023-09-17T17:06:21.697Z,2.88
2023-09-17T17:09:07.304Z,2.85
2023-09-17T17:11:53.169Z,2.75
2023-09-17T17:14:39.089Z,2.85
2023-09-17T17:17:25.166Z,3.03
2023-09-17T17:20:11.531Z,3.10
2023-09-17T17:22:59.271Z,3.00
2023-09-17T17:25:45.033Z,3.33
2023-09-17T17:28:30.900Z,2.90
2023-09-17T17:31:16.884Z,3.10
2023-09-17T17:34:02.788Z,3.20
2023-09-17T17:36:48.635Z,3.10
2023-09-17T17:39:35.744Z,3.08
2023-09-17T17:42:21.363Z,2.80
2023-09-17T17:45:09.707Z,3.00
2023-09-17T17:47:55.468Z,3.33
2023-09-17T17:50:41.118Z,3.20
2023-09-17T17:53:30.459Z,3.10
2023-09-17T17:56:17.755Z,3.47
2023-09-17T17:59:03.854Z,3.03
2023-09-17T18:01:49.756Z,2.92
2023-09-17T18:04:35.389Z,3.00
2023-09-17T18:07:24.481Z,3.22
2023-09-17T18:10:11.343Z,3.22
2023-09-17T18:12:58.337Z,3.20
2023-09-17T18:15:43.857Z,3.25
2023-09-17T18:18:29.829Z,3.28
2023-09-17T18:21:15.505Z,3.30
2023-09-17T18:24:01.340Z,3.00
2023-09-17T18:26:47.082Z,3.30
2023-09-17T18:29:33.922Z,3.25
2023-09-17T18:32:44.648Z,2.75
2023-09-17T18:35:31.246Z,3.58
2023-09-17T18:38:18.259Z,3.08
2023-09-17T18:41:04.297Z,3.13
2023-09-17T18:43:50.363Z,3.60
2023-09-17T18:46:38.133Z,2.97
2023-09-17T18:49:24.050Z,3.17
2023-09-17T18:52:09.714Z,3.05
2023-09-17T18:54:55.601Z,3.30
2023-09-17T18:57:41.468Z,3.33
2023-09-17T19:00:27.313Z,3.08
2023-09-17T19:03:14.387Z,3.38
2023-09-17T19:06:00.582Z,3.00
2023-09-17T19:08:46.776Z,3.40
2023-09-17T19:11:33.312Z,3.53
2023-09-17T19:14:19.950Z,3.08
2023-09-17T19:17:05.428Z,3.50
2023-09-17T19:19:54.221Z,3.28
2023-09-17T19:22:40.552Z,3.30
2023-09-17T19:25:26.646Z,3.13
2023-09-17T19:28:12.329Z,3.50
2023-09-17T19:30:57.955Z,3.53
2023-09-17T19:33:44.131Z,3.30
2023-09-17T19:36:32.293Z,3.40
2023-09-17T19:39:18.686Z,3.20
2023-09-17T19:42:05.095Z,3.33
2023-09-17T19:44:50.681Z,3.40
2023-09-17T19:47:36.732Z,3.13
2023-09-17T19:50:22.195Z,3.47
2023-09-17T19:53:09.492Z,3.25
2023-09-17T19:55:55.584Z,3.25
2023-09-17T19:58:41.422Z,3.40
2023-09-17T20:01:28.083Z,3.30
2023-09-17T20:04:15.303Z,3.40
2023-09-17T20:07:01.298Z,3.50
2023-09-17T20:09:48.358Z,3.40
2023-09-17T20:12:33.746Z,3.22
2023-09-17T20:15:19.483Z,3.67
2023-09-17T20:18:06.063Z,3.78
2023-09-17T20:20:51.494Z,3.25
2023-09-17T20:23:38.119Z,3.55
2023-09-17T20:26:25.040Z,3.33
2023-09-17T20:29:10.627Z,3.45
2023-09-17T20:31:56.735Z,3.25
2023-09-17T20:34:42.862Z,3.60
2023-09-17T20:37:28.217Z,3.72
2023-09-17T20:40:14.204Z,3.63
2023-09-17T20:43:01.166Z,3.47
2023-09-17T20:45:48.576Z,3.17
2023-09-17T20:48:34.636Z,3.60
2023-09-17T20:51:20.322Z,3.20
2023-09-17T20:54:06.300Z,3.30
2023-09-17T20:56:52.039Z,3.60
2023-09-17T20:59:38.754Z,3.33
2023-09-17T21:02:25.287Z,3.58
2023-09-17T21:05:11.105Z,3.45
2023-09-17T21:07:56.594Z,3.17
2023-09-17T21:10:42.939Z,3.50
2023-09-17T21:13:28.440Z,3.50
2023-09-17T21:16:17.162Z,3.13
2023-09-17T21:19:03.166Z,3.25
2023-09-17T21:22:15.358Z,3.60
2023-09-17T21:25:01.120Z,3.40
2023-09-17T21:27:46.759Z,3.28
2023-09-17T21:30:33.128Z,3.50
2023-09-17T21:33:20.351Z,3.50
2023-09-17T21:36:06.499Z,3.58
2023-09-17T21:38:53.076Z,3.40
2023-09-17T21:41:38.645Z,3.17
2023-09-17T21:44:24.740Z,3.28
2023-09-17T21:47:10.611Z,3.05
2023-09-17T21:49:57.651Z,3.33
2023-09-17T21:52:43.477Z,3.10
2023-09-17T21:55:29.140Z,3.35
2023-09-17T21:58:14.722Z,3.60
2023-09-17T22:01:00.513Z,3.40
2023-09-17T22:03:49.383Z,3.35
2023-09-17T22:06:36.708Z,3.35
2023-09-17T22:09:22.056Z,3.50
2023-09-17T22:12:08.677Z,3.38
2023-09-17T22:14:55.306Z,3.38
2023-09-17T22:17:41.073Z,3.17
2023-09-17T22:20:26.937Z,3.38
2023-09-17T22:23:14.150Z,3.50
2023-09-17T22:26:01.376Z,3.22
2023-09-17T22:28:49.644Z,3.40
2023-09-17T22:31:34.978Z,3.30
2023-09-17T22:34:24.075Z,3.80
2023-09-17T22:37:09.957Z,3.10
2023-09-17T22:39:56.860Z,3.63
2023-09-17T22:42:42.462Z,3.67
2023-09-17T22:45:28.216Z,3.47
2023-09-17T22:48:14.111Z,3.70
2023-09-17T22:51:00.436Z,3.72
2023-09-17T22:53:47.768Z,3.50
2023-09-17T22:56:35.002Z,3.42
2023-09-17T22:59:22.590Z,3.60
2023-09-17T23:02:08.153Z,4.35
2023-09-17T23:04:54.737Z,3.58
2023-09-17T23:07:41.000Z,3.28
2023-09-17T23:10:26.604Z,4.03
2023-09-17T23:13:13.641Z,3.88
2023-09-17T23:16:01.936Z,3.92
2023-09-17T23:21:57.830Z,3.53
2023-09-17T23:24:43.456Z,4.07
2023-09-17T23:27:29.143Z,3.90
2023-09-17T23:30:16.474Z,3.95
2023-09-17T23:33:02.973Z,3.80
2023-09-17T23:35:48.532Z,3.88
2023-09-17T23:38:34.770Z,3.95
2023-09-17T23:41:21.914Z,3.88
2023-09-17T23:44:08.008Z,4.28
2023-09-17T23:46:55.020Z,4.18
2023-09-17T23:49:40.855Z,4.10
2023-09-17T23:52:26.661Z,4.28
2023-09-17T23:55:12.236Z,4.43
2023-09-17T23:57:57.952Z,3.92
